createdAt,value
2023-03-24T00:00:27.000Z,81.70
2023-03-24T00:01:27.000Z,81.70
2023-03-24T00:02:27.000Z,81.70
2023-03-24T00:03:27.000Z,81.70
2023-03-24T00:04:27.000Z,81.70
2023-03-24T00:05:27.000Z,81.70
2023-03-24T00:06:27.000Z,81.70
2023-03-24T00:07:27.000Z,81.70
2023-03-24T00:08:27.000Z,81.70
2023-03-24T00:09:27.000Z,81.49
2023-03-24T00:10:27.000Z,81.39
2023-03-24T00:11:27.000Z,81.29
2023-03-24T00:12:27.000Z,81.18
2023-03-24T00:13:27.000Z,81.09
2023-03-24T00:14:27.000Z,81.09
2023-03-24T00:15:27.000Z,80.98
2023-03-24T00:16:27.000Z,80.98
2023-03-24T00:17:27.000Z,80.88
2023-03-24T00:18:27.000Z,80.88
2023-03-24T00:19:27.000Z,80.78
2023-03-24T00:20:27.000Z,80.68
2023-03-24T00:21:27.000Z,80.57
2023-03-24T00:22:27.000Z,80.57
2023-03-24T00:23:27.000Z,80.57
2023-03-24T00:24:26.000Z,80.57
2023-03-24T00:25:26.000Z,80.57
2023-03-24T00:26:26.000Z,80.57
2023-03-24T00:27:26.000Z,80.47
2023-03-24T00:28:26.000Z,80.47
2023-03-24T00:29:26.000Z,80.47
2023-03-24T00:30:26.000Z,80.37
2023-03-24T00:31:26.000Z,80.37
2023-03-24T00:32:26.000Z,80.37
2023-03-24T00:33:26.000Z,80.37
2023-03-24T00:34:26.000Z,80.37
2023-03-24T00:35:26.000Z,80.37
2023-03-24T00:36:26.000Z,80.37
2023-03-24T00:37:26.000Z,80.27
2023-03-24T00:38:26.000Z,80.27
2023-03-24T00:39:26.000Z,80.27
2023-03-24T00:40:26.000Z,80.27
2023-03-24T00:41:26.000Z,80.27
2023-03-24T00:42:26.000Z,80.27
2023-03-24T00:43:26.000Z,80.27
2023-03-24T00:44:26.000Z,80.27
2023-03-24T00:45:26.000Z,80.27
2023-03-24T00:46:26.000Z,80.37
2023-03-24T00:47:26.000Z,80.37
2023-03-24T00:48:26.000Z,80.27
2023-03-24T00:49:26.000Z,80.27
2023-03-24T00:50:26.000Z,80.27
2023-03-24T00:51:26.000Z,80.27
2023-03-24T00:52:26.000Z,80.37
2023-03-24T00:53:26.000Z,80.27
2023-03-24T00:54:26.000Z,80.27
2023-03-24T00:55:26.000Z,80.27
2023-03-24T00:56:26.000Z,80.27
2023-03-24T00:57:26.000Z,80.27
2023-03-24T00:58:26.000Z,80.37
2023-03-24T00:59:26.000Z,80.37
2023-03-24T01:00:26.000Z,80.37
2023-03-24T01:01:26.000Z,80.27
2023-03-24T01:02:26.000Z,80.37
2023-03-24T01:03:26.000Z,80.27
2023-03-24T01:04:26.000Z,80.16
2023-03-24T01:05:26.000Z,80.27
2023-03-24T01:06:26.000Z,80.27
2023-03-24T01:07:26.000Z,80.37
2023-03-24T01:08:26.000Z,80.33
2023-03-24T01:09:26.000Z,80.43
2023-03-24T01:10:26.000Z,80.43
2023-03-24T01:11:26.000Z,80.43
2023-03-24T01:12:26.000Z,80.47
2023-03-24T01:13:26.000Z,80.43
2023-03-24T01:14:26.000Z,80.43
2023-03-24T01:15:26.000Z,80.54
2023-03-24T01:16:26.000Z,80.54
2023-03-24T01:17:26.000Z,80.64
2023-03-24T01:18:26.000Z,80.64
2023-03-24T01:19:26.000Z,80.74
2023-03-24T01:20:26.000Z,80.84
2023-03-24T01:21:26.000Z,80.84
2023-03-24T01:22:26.000Z,80.84
2023-03-24T01:23:26.000Z,80.94
2023-03-24T01:24:26.000Z,81.04
2023-03-24T01:25:26.000Z,81.15
2023-03-24T01:26:26.000Z,81.25
2023-03-24T01:27:26.000Z,81.35
2023-03-24T01:28:26.000Z,81.35
2023-03-24T01:29:26.000Z,81.45
2023-03-24T01:30:26.000Z,81.45
2023-03-24T01:31:26.000Z,81.66
2023-03-24T01:32:26.000Z,81.82
2023-03-24T01:33:26.000Z,81.72
2023-03-24T01:34:26.000Z,81.62
2023-03-24T01:35:26.000Z,81.72
2023-03-24T01:36:26.000Z,81.82
2023-03-24T01:37:26.000Z,81.82
2023-03-24T01:38:26.000Z,82.03
2023-03-24T01:39:26.000Z,82.23
2023-03-24T01:40:26.000Z,82.33
2023-03-24T01:41:26.000Z,82.43
2023-03-24T01:42:26.000Z,82.43
2023-03-24T01:43:26.000Z,82.43
2023-03-24T01:44:26.000Z,82.54
2023-03-24T01:45:26.000Z,82.43
2023-03-24T01:46:26.000Z,82.43
2023-03-24T01:47:26.000Z,82.64
2023-03-24T01:48:26.000Z,82.64
2023-03-24T01:49:26.000Z,82.74
2023-03-24T01:50:26.000Z,82.84
2023-03-24T01:51:26.000Z,82.64
2023-03-24T01:52:26.000Z,82.74
2023-03-24T01:53:26.000Z,82.64
2023-03-24T01:54:26.000Z,82.64
2023-03-24T01:55:26.000Z,82.74
2023-03-24T01:56:26.000Z,82.84
2023-03-24T01:57:26.000Z,82.54
2023-03-24T01:58:26.000Z,82.54
2023-03-24T01:59:26.000Z,82.43
2023-03-24T02:00:26.000Z,82.64
2023-03-24T02:01:26.000Z,82.74
2023-03-24T02:02:26.000Z,82.74
2023-03-24T02:03:26.000Z,82.84
2023-03-24T02:04:26.000Z,82.94
2023-03-24T02:05:26.000Z,82.84
2023-03-24T02:06:26.000Z,82.84
2023-03-24T02:07:25.000Z,82.94
2023-03-24T02:08:25.000Z,82.74
2023-03-24T02:09:25.000Z,82.84
2023-03-24T02:10:25.000Z,82.74
2023-03-24T02:11:25.000Z,82.74
2023-03-24T02:12:25.000Z,82.64
2023-03-24T02:13:25.000Z,82.74
2023-03-24T02:14:25.000Z,82.74
2023-03-24T02:15:25.000Z,82.74
2023-03-24T02:16:25.000Z,82.74
2023-03-24T02:17:25.000Z,82.74
2023-03-24T02:18:25.000Z,82.33
2023-03-24T02:19:25.000Z,82.43
2023-03-24T02:20:25.000Z,82.54
2023-03-24T02:21:25.000Z,82.54
2023-03-24T02:22:25.000Z,82.64
2023-03-24T02:23:25.000Z,82.64
2023-03-24T02:24:25.000Z,82.74
2023-03-24T02:25:25.000Z,82.84
2023-03-24T02:26:25.000Z,82.84
2023-03-24T02:27:25.000Z,82.84
2023-03-24T02:28:25.000Z,82.94
2023-03-24T02:29:25.000Z,83.04
2023-03-24T02:30:25.000Z,83.04
2023-03-24T02:31:25.000Z,83.04
2023-03-24T02:32:25.000Z,83.15
2023-03-24T02:33:25.000Z,83.25
2023-03-24T02:34:25.000Z,83.25
2023-03-24T02:35:25.000Z,83.35
2023-03-24T02:36:25.000Z,83.45
2023-03-24T02:37:25.000Z,83.45
2023-03-24T02:38:25.000Z,83.65
2023-03-24T02:39:25.000Z,83.35
2023-03-24T02:40:25.000Z,83.56
2023-03-24T02:41:25.000Z,83.65
2023-03-24T02:42:25.000Z,83.86
2023-03-24T02:43:25.000Z,84.03
2023-03-24T02:44:25.000Z,83.92
2023-03-24T02:45:25.000Z,84.03
2023-03-24T02:46:25.000Z,84.23
2023-03-24T02:47:25.000Z,84.47
2023-03-24T02:48:25.000Z,84.47
2023-03-24T02:49:25.000Z,84.58
2023-03-24T02:50:25.000Z,84.67
2023-03-24T02:51:25.000Z,84.47
2023-03-24T02:52:25.000Z,84.78
2023-03-24T02:53:25.000Z,84.88
2023-03-24T02:54:25.000Z,85.08
2023-03-24T02:55:25.000Z,84.98
2023-03-24T02:56:25.000Z,84.98
2023-03-24T02:57:25.000Z,85.19
2023-03-24T02:58:25.000Z,85.39
2023-03-24T02:59:25.000Z,85.49
2023-03-24T03:00:25.000Z,85.60
2023-03-24T03:01:25.000Z,85.69
2023-03-24T03:02:25.000Z,85.69
2023-03-24T03:03:25.000Z,85.80
2023-03-24T03:04:25.000Z,85.90
2023-03-24T03:05:25.000Z,86.00
2023-03-24T03:06:25.000Z,86.10
2023-03-24T03:07:25.000Z,86.21
2023-03-24T03:08:25.000Z,86.21
2023-03-24T03:09:25.000Z,86.30
2023-03-24T03:10:25.000Z,86.41
2023-03-24T03:11:25.000Z,86.41
2023-03-24T03:12:25.000Z,86.61
2023-03-24T03:13:25.000Z,86.61
2023-03-24T03:14:25.000Z,86.71
2023-03-24T03:15:25.000Z,86.71
2023-03-24T03:16:25.000Z,86.82
2023-03-24T03:17:25.000Z,86.82
2023-03-24T03:18:25.000Z,86.92
2023-03-24T03:19:25.000Z,86.92
2023-03-24T03:20:25.000Z,87.02
2023-03-24T03:21:25.000Z,87.12
2023-03-24T03:22:25.000Z,87.12
2023-03-24T03:23:25.000Z,87.23
2023-03-24T03:24:25.000Z,87.23
2023-03-24T03:25:25.000Z,87.23
2023-03-24T03:26:25.000Z,87.32
2023-03-24T03:27:25.000Z,87.32
2023-03-24T03:28:25.000Z,87.43
2023-03-24T03:29:25.000Z,87.43
2023-03-24T03:30:25.000Z,87.53
2023-03-24T03:31:25.000Z,87.53
2023-03-24T03:32:25.000Z,87.63
2023-03-24T03:33:25.000Z,87.63
2023-03-24T03:34:25.000Z,87.63
2023-03-24T03:35:25.000Z,87.73
2023-03-24T03:36:25.000Z,87.73
2023-03-24T03:37:25.000Z,87.73
2023-03-24T03:38:25.000Z,87.94
2023-03-24T03:39:25.000Z,87.84
2023-03-24T03:40:25.000Z,87.94
2023-03-24T03:41:25.000Z,87.94
2023-03-24T03:42:25.000Z,88.04
2023-03-24T03:43:25.000Z,88.04
2023-03-24T03:44:25.000Z,88.04
2023-03-24T03:45:25.000Z,87.94
2023-03-24T03:46:25.000Z,87.73
2023-03-24T03:47:25.000Z,87.84
2023-03-24T03:48:25.000Z,87.73
2023-03-24T03:49:25.000Z,87.94
2023-03-24T03:50:24.000Z,88.14
2023-03-24T03:51:24.000Z,88.14
2023-03-24T03:52:24.000Z,88.24
2023-03-24T03:53:24.000Z,88.14
2023-03-24T03:54:24.000Z,88.24
2023-03-24T03:55:24.000Z,88.34
2023-03-24T03:56:24.000Z,88.45
2023-03-24T03:57:24.000Z,88.34
2023-03-24T03:58:24.000Z,88.34
2023-03-24T03:59:24.000Z,88.34
2023-03-24T04:00:24.000Z,88.45
2023-03-24T04:01:24.000Z,88.55
2023-03-24T04:02:24.000Z,88.55
2023-03-24T04:03:24.000Z,88.55
2023-03-24T04:04:24.000Z,88.65
2023-03-24T04:05:24.000Z,88.65
2023-03-24T04:06:24.000Z,88.65
2023-03-24T04:07:24.000Z,88.65
2023-03-24T04:08:24.000Z,88.65
2023-03-24T04:09:24.000Z,88.65
2023-03-24T04:10:24.000Z,88.65
2023-03-24T04:11:24.000Z,88.65
2023-03-24T04:12:24.000Z,88.45
2023-03-24T04:13:24.000Z,88.55
2023-03-24T04:14:24.000Z,88.55
2023-03-24T04:15:24.000Z,88.65
2023-03-24T04:16:24.000Z,88.65
2023-03-24T04:17:24.000Z,88.65
2023-03-24T04:18:24.000Z,88.65
2023-03-24T04:19:24.000Z,88.65
2023-03-24T04:20:24.000Z,88.65
2023-03-24T04:21:24.000Z,88.65
2023-03-24T04:22:24.000Z,88.69
2023-03-24T04:23:24.000Z,88.65
2023-03-24T04:24:24.000Z,88.65
2023-03-24T04:25:24.000Z,88.55
2023-03-24T04:26:24.000Z,88.55
2023-03-24T04:27:24.000Z,88.55
2023-03-24T04:28:24.000Z,88.55
2023-03-24T04:29:24.000Z,88.55
2023-03-24T04:30:24.000Z,88.34
2023-03-24T04:31:24.000Z,88.34
2023-03-24T04:32:24.000Z,88.34
2023-03-24T04:33:24.000Z,88.24
2023-03-24T04:34:24.000Z,88.14
2023-03-24T04:35:24.000Z,88.14
2023-03-24T04:36:24.000Z,88.14
2023-03-24T04:37:24.000Z,88.14
2023-03-24T04:38:24.000Z,88.14
2023-03-24T04:39:24.000Z,88.14
2023-03-24T04:40:24.000Z,88.04
2023-03-24T04:41:24.000Z,88.04
2023-03-24T04:42:24.000Z,88.04
2023-03-24T04:43:24.000Z,87.94
2023-03-24T04:44:24.000Z,87.94
2023-03-24T04:45:24.000Z,87.94
2023-03-24T04:46:24.000Z,87.94
2023-03-24T04:47:24.000Z,87.84
2023-03-24T04:48:24.000Z,87.84
2023-03-24T04:49:24.000Z,87.84
2023-03-24T04:50:24.000Z,87.94
2023-03-24T04:51:24.000Z,87.84
2023-03-24T04:52:24.000Z,87.84
2023-03-24T04:53:24.000Z,87.84
2023-03-24T04:54:24.000Z,87.84
2023-03-24T04:55:24.000Z,87.73
2023-03-24T04:56:24.000Z,87.63
2023-03-24T04:57:24.000Z,87.63
2023-03-24T04:58:24.000Z,87.53
2023-03-24T04:59:24.000Z,87.53
2023-03-24T05:00:24.000Z,87.53
2023-03-24T05:01:24.000Z,87.53
2023-03-24T05:02:24.000Z,87.43
2023-03-24T05:03:24.000Z,87.43
2023-03-24T05:04:24.000Z,87.43
2023-03-24T05:05:24.000Z,87.43
2023-03-24T05:06:24.000Z,87.32
2023-03-24T05:07:24.000Z,87.23
2023-03-24T05:08:24.000Z,87.23
2023-03-24T05:09:24.000Z,87.23
2023-03-24T05:10:24.000Z,87.32
2023-03-24T05:11:24.000Z,87.32
2023-03-24T05:12:24.000Z,87.32
2023-03-24T05:13:24.000Z,87.32
2023-03-24T05:14:24.000Z,87.32
2023-03-24T05:15:24.000Z,87.43
2023-03-24T05:16:24.000Z,87.32
2023-03-24T05:17:24.000Z,87.43
2023-03-24T05:18:24.000Z,87.32
2023-03-24T05:19:24.000Z,87.32
2023-03-24T05:20:24.000Z,87.32
2023-03-24T05:21:24.000Z,87.32
2023-03-24T05:22:24.000Z,87.32
2023-03-24T05:23:24.000Z,87.32
2023-03-24T05:24:24.000Z,87.32
2023-03-24T05:25:24.000Z,87.23
2023-03-24T05:26:24.000Z,87.12
2023-03-24T05:27:24.000Z,87.12
2023-03-24T05:28:24.000Z,87.02
2023-03-24T05:29:24.000Z,86.82
2023-03-24T05:30:24.000Z,86.82
2023-03-24T05:31:24.000Z,86.82
2023-03-24T05:32:23.000Z,86.82
2023-03-24T05:33:23.000Z,86.92
2023-03-24T05:34:23.000Z,86.92
2023-03-24T05:35:23.000Z,86.82
2023-03-24T05:36:23.000Z,86.71
2023-03-24T05:37:23.000Z,86.61
2023-03-24T05:38:23.000Z,86.71
2023-03-24T05:39:23.000Z,86.71
2023-03-24T05:40:23.000Z,86.71
2023-03-24T05:41:23.000Z,86.61
2023-03-24T05:42:23.000Z,86.61
2023-03-24T05:43:23.000Z,86.61
2023-03-24T05:44:23.000Z,86.61
2023-03-24T05:45:23.000Z,86.51
2023-03-24T05:46:23.000Z,86.10
2023-03-24T05:47:23.000Z,86.16
2023-03-24T05:48:23.000Z,85.96
2023-03-24T05:49:23.000Z,85.66
2023-03-24T05:50:23.000Z,85.66
2023-03-24T05:51:23.000Z,85.75
2023-03-24T05:52:23.000Z,85.75
2023-03-24T05:53:23.000Z,85.75
2023-03-24T05:54:23.000Z,85.75
2023-03-24T05:55:23.000Z,85.75
2023-03-24T05:56:23.000Z,85.75
2023-03-24T05:57:23.000Z,85.75
2023-03-24T05:58:23.000Z,85.55
2023-03-24T05:59:23.000Z,85.45
2023-03-24T06:00:23.000Z,85.45
2023-03-24T06:01:23.000Z,85.05
2023-03-24T06:02:23.000Z,84.64
2023-03-24T06:03:23.000Z,84.84
2023-03-24T06:04:23.000Z,84.94
2023-03-24T06:05:23.000Z,84.94
2023-03-24T06:06:23.000Z,84.53
2023-03-24T06:07:23.000Z,83.92
2023-03-24T06:08:23.000Z,83.98
2023-03-24T06:09:23.000Z,82.97
2023-03-24T06:10:23.000Z,82.56
2023-03-24T06:11:23.000Z,82.87
2023-03-24T06:12:23.000Z,82.97
2023-03-24T06:13:23.000Z,82.87
2023-03-24T06:14:23.000Z,82.21
2023-03-24T06:15:23.000Z,82.21
2023-03-24T06:16:23.000Z,82.21
2023-03-24T06:17:23.000Z,81.60
2023-03-24T06:18:23.000Z,81.60
2023-03-24T06:19:23.000Z,81.20
2023-03-24T06:20:23.000Z,81.40
2023-03-24T06:21:23.000Z,81.60
2023-03-24T06:22:23.000Z,81.81
2023-03-24T06:23:23.000Z,81.40
2023-03-24T06:24:23.000Z,80.85
2023-03-24T06:25:23.000Z,81.16
2023-03-24T06:26:23.000Z,80.85
2023-03-24T06:27:23.000Z,80.96
2023-03-24T06:28:23.000Z,81.16
2023-03-24T06:29:23.000Z,81.16
2023-03-24T06:30:23.000Z,81.16
2023-03-24T06:31:23.000Z,81.16
2023-03-24T06:32:23.000Z,81.26
2023-03-24T06:33:23.000Z,81.37
2023-03-24T06:34:23.000Z,81.26
2023-03-24T06:35:23.000Z,81.37
2023-03-24T06:36:23.000Z,81.37
2023-03-24T06:37:23.000Z,81.37
2023-03-24T06:38:23.000Z,81.16
2023-03-24T06:39:23.000Z,80.82
2023-03-24T06:40:23.000Z,80.82
2023-03-24T06:41:23.000Z,80.00
2023-03-24T06:42:23.000Z,80.31
2023-03-24T06:43:23.000Z,80.41
2023-03-24T06:44:23.000Z,80.62
2023-03-24T06:45:23.000Z,80.62
2023-03-24T06:46:23.000Z,80.62
2023-03-24T06:47:23.000Z,79.80
2023-03-24T06:48:23.000Z,79.90
2023-03-24T06:49:23.000Z,80.21
2023-03-24T06:50:23.000Z,80.11
2023-03-24T06:51:23.000Z,80.21
2023-03-24T06:52:23.000Z,80.11
2023-03-24T06:53:23.000Z,80.11
2023-03-24T06:54:23.000Z,80.00
2023-03-24T06:55:23.000Z,80.00
2023-03-24T06:56:23.000Z,80.11
2023-03-24T06:57:23.000Z,80.07
2023-03-24T06:58:23.000Z,79.86
2023-03-24T06:59:23.000Z,79.97
2023-03-24T07:00:23.000Z,79.97
2023-03-24T07:01:23.000Z,79.97
2023-03-24T07:02:23.000Z,79.86
2023-03-24T07:03:23.000Z,79.16
2023-03-24T07:03:23.000Z,79.16
2023-03-24T07:04:23.000Z,78.95
2023-03-24T07:04:23.000Z,78.95
2023-03-24T07:05:23.000Z,79.22
2023-03-24T07:05:23.000Z,79.22
2023-03-24T07:06:23.000Z,79.32
2023-03-24T07:06:23.000Z,79.32
2023-03-24T07:07:23.000Z,78.91
2023-03-24T07:07:23.000Z,78.91
2023-03-24T07:08:23.000Z,79.12
2023-03-24T07:09:23.000Z,78.51
2023-03-24T07:10:23.000Z,78.10
2023-03-24T07:11:23.000Z,77.90
2023-03-24T07:12:23.000Z,77.76
2023-03-24T07:13:23.000Z,77.25
2023-03-24T07:14:23.000Z,77.15
2023-03-24T07:15:22.000Z,77.36
2023-03-24T07:16:22.000Z,77.15
2023-03-24T07:17:22.000Z,77.05
2023-03-24T07:18:22.000Z,77.25
2023-03-24T07:19:22.000Z,76.44
2023-03-24T07:20:22.000Z,76.54
2023-03-24T07:21:22.000Z,76.91
2023-03-24T07:22:22.000Z,76.20
2023-03-24T07:23:22.000Z,76.31
2023-03-24T07:24:22.000Z,76.20
2023-03-24T07:25:22.000Z,76.40
2023-03-24T07:26:22.000Z,76.10
2023-03-24T07:27:22.000Z,75.35
2023-03-24T07:28:22.000Z,75.66
2023-03-24T07:29:22.000Z,75.15
2023-03-24T07:30:22.000Z,74.95
2023-03-24T07:31:22.000Z,74.74
2023-03-24T07:32:22.000Z,74.51
2023-03-24T07:33:22.000Z,73.90
2023-03-24T07:34:22.000Z,74.21
2023-03-24T07:35:22.000Z,73.60
2023-03-24T07:36:22.000Z,73.70
2023-03-24T07:37:22.000Z,73.49
2023-03-24T07:38:22.000Z,73.49
2023-03-24T07:39:22.000Z,73.49
2023-03-24T07:40:22.000Z,73.05
2023-03-24T07:41:22.000Z,73.25
2023-03-24T07:42:22.000Z,73.05
2023-03-24T07:43:22.000Z,72.85
2023-03-24T07:44:22.000Z,72.65
2023-03-24T07:45:22.000Z,72.45
2023-03-24T07:46:22.000Z,72.75
2023-03-24T07:47:22.000Z,72.55
2023-03-24T07:48:22.000Z,72.75
2023-03-24T07:49:22.000Z,72.96
2023-03-24T07:50:22.000Z,72.31
2023-03-24T07:51:22.000Z,72.41
2023-03-24T07:52:22.000Z,72.72
2023-03-24T07:53:22.000Z,72.41
2023-03-24T07:54:22.000Z,72.41
2023-03-24T07:55:22.000Z,72.72
2023-03-24T07:56:22.000Z,72.72
2023-03-24T07:57:22.000Z,72.41
2023-03-24T07:58:22.000Z,71.80
2023-03-24T07:59:22.000Z,72.01
2023-03-24T08:00:22.000Z,71.91
2023-03-24T08:01:22.000Z,71.60
2023-03-24T08:02:22.000Z,71.80
2023-03-24T08:03:22.000Z,71.80
2023-03-24T08:04:22.000Z,72.21
2023-03-24T08:05:22.000Z,72.11
2023-03-24T08:06:22.000Z,72.41
2023-03-24T08:07:22.000Z,72.21
2023-03-24T08:08:22.000Z,72.31
2023-03-24T08:09:22.000Z,72.31
2023-03-24T08:10:22.000Z,72.21
2023-03-24T08:11:22.000Z,72.11
2023-03-24T08:12:22.000Z,72.21
2023-03-24T08:13:22.000Z,72.31
2023-03-24T08:14:22.000Z,72.01
2023-03-24T08:15:22.000Z,72.01
2023-03-24T08:16:22.000Z,71.88
2023-03-24T08:17:22.000Z,71.88
2023-03-24T08:18:22.000Z,72.08
2023-03-24T08:19:22.000Z,71.47
2023-03-24T08:20:22.000Z,71.16
2023-03-24T08:21:22.000Z,71.26
2023-03-24T08:22:22.000Z,71.67
2023-03-24T08:23:22.000Z,71.47
2023-03-24T08:24:22.000Z,71.67
2023-03-24T08:25:22.000Z,71.26
2023-03-24T08:26:22.000Z,71.23
2023-03-24T08:27:22.000Z,71.23
2023-03-24T08:28:22.000Z,70.83
2023-03-24T08:29:22.000Z,70.73
2023-03-24T08:30:22.000Z,71.13
2023-03-24T08:31:22.000Z,71.03
2023-03-24T08:32:22.000Z,70.73
2023-03-24T08:33:22.000Z,70.83
2023-03-24T08:34:22.000Z,70.79
2023-03-24T08:35:22.000Z,70.79
2023-03-24T08:36:22.000Z,70.59
2023-03-24T08:37:22.000Z,70.39
2023-03-24T08:38:22.000Z,70.39
2023-03-24T08:39:22.000Z,70.29
2023-03-24T08:40:22.000Z,70.09
2023-03-24T08:41:22.000Z,69.98
2023-03-24T08:42:22.000Z,69.89
2023-03-24T08:43:22.000Z,69.65
2023-03-24T08:44:22.000Z,69.85
2023-03-24T08:45:22.000Z,69.65
2023-03-24T08:46:22.000Z,69.65
2023-03-24T08:47:22.000Z,69.65
2023-03-24T08:48:22.000Z,69.85
2023-03-24T08:49:22.000Z,69.65
2023-03-24T08:50:22.000Z,69.75
2023-03-24T08:51:22.000Z,69.95
2023-03-24T08:52:22.000Z,69.75
2023-03-24T08:53:22.000Z,69.92
2023-03-24T08:54:22.000Z,69.31
2023-03-24T08:55:22.000Z,69.21
2023-03-24T08:56:22.000Z,68.91
2023-03-24T08:57:22.000Z,68.67
2023-03-24T08:58:21.000Z,68.17
2023-03-24T08:59:21.000Z,67.46
2023-03-24T09:00:21.000Z,67.26
2023-03-24T09:01:21.000Z,66.96
2023-03-24T09:02:21.000Z,67.56
2023-03-24T09:03:21.000Z,66.75
2023-03-24T09:04:21.000Z,66.75
2023-03-24T09:05:21.000Z,66.62
2023-03-24T09:06:21.000Z,67.02
2023-03-24T09:07:21.000Z,66.72
2023-03-24T09:08:21.000Z,66.93
2023-03-24T09:09:21.000Z,66.32
2023-03-24T09:10:21.000Z,66.12
2023-03-24T09:11:21.000Z,66.42
2023-03-24T09:12:21.000Z,66.72
2023-03-24T09:13:21.000Z,66.55
2023-03-24T09:14:21.000Z,66.25
2023-03-24T09:15:21.000Z,66.75
2023-03-24T09:16:21.000Z,66.96
2023-03-24T09:17:21.000Z,66.52
2023-03-24T09:18:21.000Z,66.62
2023-03-24T09:19:21.000Z,66.15
2023-03-24T09:20:21.000Z,66.55
2023-03-24T09:21:21.000Z,66.86
2023-03-24T09:22:21.000Z,66.55
2023-03-24T09:23:21.000Z,66.62
2023-03-24T09:24:21.000Z,66.62
2023-03-24T09:25:21.000Z,66.12
2023-03-24T09:26:21.000Z,66.32
2023-03-24T09:27:21.000Z,66.72
2023-03-24T09:28:21.000Z,66.79
2023-03-24T09:29:21.000Z,66.89
2023-03-24T09:30:21.000Z,65.88
2023-03-24T09:31:21.000Z,65.38
2023-03-24T09:32:21.000Z,65.38
2023-03-24T09:33:21.000Z,65.28
2023-03-24T09:34:21.000Z,65.08
2023-03-24T09:35:21.000Z,65.38
2023-03-24T09:36:21.000Z,65.68
2023-03-24T09:37:21.000Z,65.58
2023-03-24T09:38:21.000Z,65.35
2023-03-24T09:39:21.000Z,64.75
2023-03-24T09:40:21.000Z,64.95
2023-03-24T09:41:21.000Z,65.25
2023-03-24T09:42:21.000Z,65.45
2023-03-24T09:43:21.000Z,65.75
2023-03-24T09:44:21.000Z,65.85
2023-03-24T09:45:21.000Z,65.12
2023-03-24T09:46:21.000Z,64.61
2023-03-24T09:47:21.000Z,64.31
2023-03-24T09:48:21.000Z,64.21
2023-03-24T09:49:21.000Z,64.11
2023-03-24T09:50:21.000Z,64.69
2023-03-24T09:51:21.000Z,64.89
2023-03-24T09:52:21.000Z,65.09
2023-03-24T09:53:21.000Z,63.98
2023-03-24T09:54:21.000Z,63.27
2023-03-24T09:55:21.000Z,63.17
2023-03-24T09:56:21.000Z,64.07
2023-03-24T09:57:21.000Z,64.28
2023-03-24T09:58:21.000Z,63.98
2023-03-24T09:59:21.000Z,64.07
2023-03-24T10:00:21.000Z,63.07
2023-03-24T10:01:21.000Z,63.57
2023-03-24T10:02:21.000Z,63.57
2023-03-24T10:03:21.000Z,63.47
2023-03-24T10:04:21.000Z,63.37
2023-03-24T10:05:21.000Z,64.28
2023-03-24T10:06:21.000Z,64.18
2023-03-24T10:07:21.000Z,64.28
2023-03-24T10:08:21.000Z,63.57
2023-03-24T10:09:21.000Z,63.57
2023-03-24T10:10:21.000Z,63.07
2023-03-24T10:11:21.000Z,63.17
2023-03-24T10:12:21.000Z,63.27
2023-03-24T10:13:21.000Z,63.67
2023-03-24T10:14:21.000Z,63.37
2023-03-24T10:15:21.000Z,62.87
2023-03-24T10:16:21.000Z,63.07
2023-03-24T10:17:21.000Z,63.37
2023-03-24T10:18:21.000Z,63.57
2023-03-24T10:19:21.000Z,63.07
2023-03-24T10:20:21.000Z,62.70
2023-03-24T10:21:21.000Z,63.00
2023-03-24T10:22:21.000Z,63.37
2023-03-24T10:23:21.000Z,62.66
2023-03-24T10:24:21.000Z,62.87
2023-03-24T10:25:21.000Z,62.16
2023-03-24T10:26:21.000Z,62.26
2023-03-24T10:27:21.000Z,62.16
2023-03-24T10:28:21.000Z,62.06
2023-03-24T10:29:21.000Z,62.24
2023-03-24T10:30:21.000Z,61.83
2023-03-24T10:31:21.000Z,62.04
2023-03-24T10:32:21.000Z,62.34
2023-03-24T10:33:21.000Z,62.44
2023-03-24T10:34:21.000Z,61.90
2023-03-24T10:35:21.000Z,61.80
2023-03-24T10:36:21.000Z,61.30
2023-03-24T10:37:21.000Z,61.70
2023-03-24T10:38:20.000Z,62.01
2023-03-24T10:39:20.000Z,61.37
2023-03-24T10:40:20.000Z,60.57
2023-03-24T10:41:20.000Z,60.87
2023-03-24T10:42:20.000Z,60.57
2023-03-24T10:43:20.000Z,60.36
2023-03-24T10:44:20.000Z,61.27
2023-03-24T10:45:20.000Z,61.27
2023-03-24T10:46:20.000Z,59.19
2023-03-24T10:47:20.000Z,59.28
2023-03-24T10:48:20.000Z,59.11
2023-03-24T10:49:20.000Z,59.92
2023-03-24T10:50:20.000Z,59.75
2023-03-24T10:51:20.000Z,60.05
2023-03-24T10:52:20.000Z,60.75
2023-03-24T10:53:20.000Z,60.45
2023-03-24T10:54:20.000Z,59.77
2023-03-24T10:55:20.000Z,57.45
2023-03-24T10:56:20.000Z,56.57
2023-03-24T10:57:20.000Z,56.27
2023-03-24T10:58:20.000Z,56.20
2023-03-24T10:59:20.000Z,55.69
2023-03-24T11:00:20.000Z,55.82
2023-03-24T11:01:20.000Z,56.23
2023-03-24T11:02:20.000Z,55.72
2023-03-24T11:03:20.000Z,56.25
2023-03-24T11:04:20.000Z,57.16
2023-03-24T11:05:20.000Z,56.15
2023-03-24T11:06:20.000Z,56.56
2023-03-24T11:07:20.000Z,57.39
2023-03-24T11:08:20.000Z,56.78
2023-03-24T11:09:20.000Z,56.98
2023-03-24T11:10:20.000Z,57.59
2023-03-24T11:11:20.000Z,57.18
2023-03-24T11:12:20.000Z,57.72
2023-03-24T11:13:20.000Z,57.72
2023-03-24T11:14:20.000Z,58.02
2023-03-24T11:15:20.000Z,58.33
2023-03-24T11:16:20.000Z,58.76
2023-03-24T11:17:20.000Z,58.76
2023-03-24T11:18:20.000Z,58.86
2023-03-24T11:19:20.000Z,58.86
2023-03-24T11:20:20.000Z,59.09
2023-03-24T11:21:20.000Z,59.59
2023-03-24T11:22:20.000Z,59.80
2023-03-24T11:23:20.000Z,60.30
2023-03-24T11:24:20.000Z,60.30
2023-03-24T11:25:20.000Z,60.00
2023-03-24T11:26:20.000Z,60.53
2023-03-24T11:27:20.000Z,60.43
2023-03-24T11:28:20.000Z,60.63
2023-03-24T11:28:20.000Z,60.63
2023-03-24T11:29:20.000Z,60.84
2023-03-24T11:29:20.000Z,60.84
2023-03-24T11:30:20.000Z,60.53
2023-03-24T11:30:20.000Z,60.53
2023-03-24T11:31:20.000Z,60.33
2023-03-24T11:31:20.000Z,60.33
2023-03-24T11:32:20.000Z,60.43
2023-03-24T11:32:20.000Z,60.43
2023-03-24T11:33:20.000Z,60.84
2023-03-24T11:34:20.000Z,60.84
2023-03-24T11:35:20.000Z,60.74
2023-03-24T11:36:20.000Z,60.94
2023-03-24T11:37:20.000Z,60.84
2023-03-24T11:38:20.000Z,63.30
2023-03-24T11:39:20.000Z,62.79
2023-03-24T11:40:20.000Z,65.53
2023-03-24T11:41:20.000Z,66.84
2023-03-24T11:42:20.000Z,67.58
2023-03-24T11:43:20.000Z,67.08
2023-03-24T11:44:20.000Z,67.58
2023-03-24T11:45:20.000Z,68.49
2023-03-24T11:46:20.000Z,68.12
2023-03-24T11:47:20.000Z,68.43
2023-03-24T11:48:20.000Z,67.11
2023-03-24T11:49:20.000Z,68.32
2023-03-24T11:50:20.000Z,68.26
2023-03-24T11:51:20.000Z,69.07
2023-03-24T11:52:20.000Z,69.17
2023-03-24T11:53:20.000Z,69.17
2023-03-24T11:54:20.000Z,69.27
2023-03-24T11:55:20.000Z,68.15
2023-03-24T11:56:20.000Z,68.76
2023-03-24T11:57:20.000Z,68.46
2023-03-24T11:58:20.000Z,68.35
2023-03-24T11:59:20.000Z,67.85
2023-03-24T12:00:20.000Z,68.35
2023-03-24T12:01:20.000Z,68.66
2023-03-24T12:02:20.000Z,68.79
2023-03-24T12:03:20.000Z,69.10
2023-03-24T12:04:20.000Z,69.30
2023-03-24T12:05:20.000Z,68.66
2023-03-24T12:06:20.000Z,69.30
2023-03-24T12:07:20.000Z,68.79
2023-03-24T12:08:20.000Z,68.90
2023-03-24T12:08:20.000Z,68.90
2023-03-24T12:09:20.000Z,68.29
2023-03-24T12:09:20.000Z,68.29
2023-03-24T12:10:20.000Z,68.05
2023-03-24T12:10:20.000Z,68.05
2023-03-24T12:11:20.000Z,68.35
2023-03-24T12:11:20.000Z,68.35
2023-03-24T12:12:20.000Z,68.66
2023-03-24T12:12:20.000Z,68.66
2023-03-24T12:13:20.000Z,68.56
2023-03-24T12:14:20.000Z,68.56
2023-03-24T12:15:20.000Z,68.35
2023-03-24T12:16:20.000Z,68.46
2023-03-24T12:17:20.000Z,67.95
2023-03-24T12:18:20.000Z,67.95
2023-03-24T12:19:20.000Z,68.46
2023-03-24T12:20:19.000Z,67.75
2023-03-24T12:21:19.000Z,67.85
2023-03-24T12:22:19.000Z,68.46
2023-03-24T12:23:19.000Z,67.85
2023-03-24T12:24:19.000Z,68.26
2023-03-24T12:25:19.000Z,68.35
2023-03-24T12:26:19.000Z,68.66
2023-03-24T12:27:19.000Z,68.35
2023-03-24T12:28:19.000Z,68.15
2023-03-24T12:29:19.000Z,68.05
2023-03-24T12:30:19.000Z,67.65
2023-03-24T12:31:19.000Z,68.26
2023-03-24T12:32:19.000Z,67.14
2023-03-24T12:33:19.000Z,67.24
2023-03-24T12:34:19.000Z,67.75
2023-03-24T12:35:19.000Z,67.95
2023-03-24T12:36:19.000Z,67.03
2023-03-24T12:37:19.000Z,66.40